Aviation Digital Data Service (ADDS)

Output produced by METARs form (1631 UTC 16 June 2019)
found at http://www.aviationweather.gov/metar/data/
 
KFAR 161137Z 1612/1712 12005KT P6SM BKN025 
     FM161800 16008KT P6SM VCSH OVC025 
     FM162000 VRB06KT P6SM BKN040
       
KFAT 161120Z 1612/1712 31008KT P6SM SCT250
       
KFAY 161120Z 1612/1712 21007KT P6SM SKC 
     FM161300 22011KT P6SM SKC 
     FM162200 19010KT P6SM SCT060
       
TAF KFBG 160900Z 1609/1715 VRB06KT 8000 BR SKC QNH3003INS 
     BECMG 1614/1615 22010G15KT 9999 NSW FEW040 SCT150 QNH2995INS 
     BECMG 1623/1624 20009KT 9999 SCT045 SCT150 QNH2997INS 
     BECMG 1705/1706 22009KT 8000 BR FEW010 SCT050 SCT150 510102 QNH2999INS 
     BECMG 1714/1715 23010G15KT 9999 NSW SCT055 SCT100 QNH3000INS TX31/1621Z
TN19/1611Z
       
TAF KFCS 161314Z 1613/1719 VRB06KT 9999 FEW100 QNH3008INS 
     BECMG 1619/1620 18012G18KT 9000 -SHRA VCTS BKN060CB QNH3004INS 
     TEMPO 1622/1704 VRB20G30KT -TSRA 
     BECMG 1705/1706 VRB06KT 9999 NSW FEW050 SCT100 QNH3006INS 
     BECMG 1715/1716 24012G18KT 9999 VCTS SCT080CB BKN100 QNH3009INS 
     BECMG 1718/1719 VRB30G40KT 8000 TSRAGR BKN050CB QNH3006INS TX26/1621Z
TN10/1613Z
       
KFDY 161403Z 1614/1712 23007KT P6SM VCSH SCT008 OVC015 
     TEMPO 1614/1616 BKN008 
     FM162300 01005KT P6SM VCSH BKN025 OVC035 
     FM170700 04004KT P6SM BKN003 OVC050
       
TAF AMD KFFO 161614Z 1616/1717 22015G20KT 9999 OVC015 QNH2980INS 
     TEMPO 1623/1701 20015G25KT 4800 -TSRA OVC020CB 
     BECMG 1704/1705 VRB06KT 4800 -SHRA OVC020 QNH2977INS 
     TEMPO 1710/1714 26020G25KT -TSRA BKN010CB OVC015 TX28/1621Z TN18/1709Z
       
KFKL 161432Z 1615/1712 25009KT P6SM OVC003 
     FM161600 29005KT 4SM -SHRA BR OVC007 
     FM161900 34005KT 5SM -SHRA VCTS BKN015CB 
     FM162100 02003KT 6SM BR OVC015 
     FM170100 VRB03KT 4SM BR OVC015 
     FM170500 VRB03KT 1 1/2SM BR OVC007
       
KFLG 161129Z 1612/1712 VRB05KT P6SM FEW120 
     FM161900 23010G18KT P6SM SCT070 BKN120 
     TEMPO 1619/1623 VRB15G25KT 6SM -TSRA BKN070CB 
     FM170300 VRB05KT P6SM FEW100 BKN250
       
KFLL 161523Z 1615/1718 VRB06KT P6SM SHRA VCTS SCT025CB BKN040 BKN090 
     TEMPO 1615/1618 4SM TSRA BKN020CB BKN040 
     FM170000 16007KT P6SM VCSH SCT020 BKN040 BKN120 
     FM170500 14009KT P6SM VCSH SCT020 BKN040
       
KFLO 161202Z 1612/1712 22004KT P6SM SCT200 
     FM161500 22008KT P6SM SCT050 
     FM162000 19007KT P6SM FEW200 
     FM170600 21004KT P6SM SKC
       
KFMH 161122Z 1612/1712 22010G18KT P6SM VCSH OVC090 
     FM161500 22012G20KT P6SM OVC110 
     FM161900 22013G23KT P6SM VCSH OVC090 
     FM162300 21011G24KT 5SM -SHRA BKN030 
     FM170500 24007KT 1 1/2SM BR VCSH OVC003 
     FM170800 28005KT 2SM BR BKN008
       
KFMN 161136Z 1612/1712 08006KT P6SM SCT120 
     FM161900 27010KT P6SM SCT090 
     FM162300 30014G24KT P6SM SCT110 
     FM170300 32009KT P6SM BKN100
       
KFMY 161537Z 1616/1712 20006KT P6SM RA VCTS SCT025 BKN040CB OVC100 
     FM161800 18007KT P6SM RA VCTS SCT030 BKN040CB BKN080 
     TEMPO 1618/1621 4SM TS BKN030CB 
     FM170300 10004KT P6SM SCT025 OVC250
       
KFNT 161139Z 1612/1712 05005KT P6SM VCSH SCT009 OVC025 
     FM161400 06006KT P6SM VCSH OVC015 
     FM162200 06008KT P6SM SCT012 OVC025 
     FM170600 07004KT P6SM SCT015 OVC030
       
KFOD 161508Z 1615/1712 15005KT 6SM BR BKN010 OVC022 
     FM161800 36005KT P6SM SCT040 
     FM170900 13005KT 5SM BR BKN110
       
KFOE 161121Z 1612/1712 36007KT P6SM SCT250
       
KFPR 161448Z 1615/1712 13007KT P6SM VCSH SCT030 BKN080 
     TEMPO 1615/1617 5SM SHRA BKN030 
     FM161700 13010KT P6SM VCTS SCT030CB BKN060 
     FM162100 14007KT P6SM SCT035 BKN250
       
KFSD 161402Z 1614/1712 VRB03KT 1/4SM FG OVC002 
     FM161430 29004KT 1SM BR SCT003 
     FM161500 33008KT P6SM SCT050 
     FM170300 VRB03KT P6SM SCT150 
     FM170800 VRB03KT P6SM BKN090
       
KFSM 161131Z 1612/1712 30010KT P6SM VCSH OVC035 
     TEMPO 1612/1616 5SM -TSRA BKN025CB 
     FM161600 13007KT P6SM BKN050 
     FM170600 VRB03KT P6SM BKN025 
     PROB30 1706/1712 5SM -TSRA BKN025CB
       
KFST 161621Z 1616/1712 30011KT P6SM SCT250 
     FM170000 16010KT P6SM SCT250
       
TAF AMD KFTK 161410Z 1614/1715 20015KT 9999 BKN025 QNH2986INS 
     TEMPO 1614/1621 22020G25KT 8000 -TSRA OVC020CB 
     BECMG 1700/1701 VRB06KT 8000 BR BKN010 QNH2988INS 
     TEMPO 1714/1715 22015G20KT -TSRA OVC010CB TX30/1621Z TN22/1614Z
       
KFTW 161505Z 1615/1712 12010KT P6SM SCT006 BKN035 
     TEMPO 1615/1616 BKN005 
     FM161600 16013KT P6SM SCT035 BKN150 
     FM162100 17016KT P6SM VCTS BKN050CB 
     TEMPO 1623/1702 5SM TSRA BKN035CB 
     FM170400 12014KT P6SM BKN050
       
KFTY 161134Z 1612/1712 VRB03KT P6SM SCT250 
     FM161400 24004KT P6SM FEW035 
     FM161800 21007KT P6SM SCT050 
     FM170100 VRB03KT P6SM BKN250
       
KFVE 161414Z 1614/1712 27007KT P6SM BKN035
       
KFWA 161213Z 1612/1712 23009KT P6SM BKN015 
     FM162300 34008KT P6SM VCSH BKN040 
     FM170400 04003KT 4SM BR OVC006
       
KFXE 161523Z 1615/1712 VRB06KT P6SM SHRA VCTS SCT025CB BKN050 BKN090 
     TEMPO 1615/1618 5SM TSRA BKN020CB BKN040 
     FM162300 VRB05KT P6SM VCSH SCT020 BKN040 BKN120
       
KFYV 161131Z 1612/1712 33010KT P6SM VCSH OVC035 
     TEMPO 1612/1616 5SM -TSRA BKN015CB 
     FM161600 18007KT P6SM BKN050 
     FM170600 VRB03KT P6SM BKN025 
     PROB30 1706/1712 5SM -TSRA BKN025CB